sensor_id;sensor_type;location;lat;lon;timestamp;temperature;humidity
34147;DHT22;20423;49.448;9.056;2023-12-28T00:01:59;3.60;99.90
34147;DHT22;20423;49.448;9.056;2023-12-28T00:04:25;3.90;99.90
34147;DHT22;20423;49.448;9.056;2023-12-28T00:06:50;4.00;99.90
34147;DHT22;20423;49.448;9.056;2023-12-28T00:09:16;4.10;99.90
34147;DHT22;20423;49.448;9.056;2023-12-28T00:11:42;4.10;99.90
34147;DHT22;20423;49.448;9.056;2023-12-28T00:14:07;4.20;99.90
34147;DHT22;20423;49.448;9.056;2023-12-28T00:16:33;4.30;99.90
34147;DHT22;20423;49.448;9.056;2023-12-28T00:18:59;4.30;99.90
34147;DHT22;20423;49.448;9.056;2023-12-28T00:21:27;4.50;99.90
34147;DHT22;20423;49.448;9.056;2023-12-28T00:23:53;4.60;99.90
34147;DHT22;20423;49.448;9.056;2023-12-28T00:26:18;4.70;99.90
34147;DHT22;20423;49.448;9.056;2023-12-28T00:28:50;4.70;99.90
34147;DHT22;20423;49.448;9.056;2023-12-28T00:31:15;4.70;99.90
34147;DHT22;20423;49.448;9.056;2023-12-28T00:33:41;4.80;99.90
34147;DHT22;20423;49.448;9.056;2023-12-28T00:36:07;4.80;99.90
34147;DHT22;20423;49.448;9.056;2023-12-28T00:38:33;4.70;99.90
34147;DHT22;20423;49.448;9.056;2023-12-28T00:40:58;4.90;99.90
34147;DHT22;20423;49.448;9.056;2023-12-28T00:43:24;4.80;99.90
34147;DHT22;20423;49.448;9.056;2023-12-28T00:45:49;4.60;99.90
34147;DHT22;20423;49.448;9.056;2023-12-28T00:48:15;4.60;99.90
34147;DHT22;20423;49.448;9.056;2023-12-28T00:50:41;4.70;99.90
34147;DHT22;20423;49.448;9.056;2023-12-28T00:53:06;4.80;99.90
34147;DHT22;20423;49.448;9.056;2023-12-28T00:55:33;4.80;99.90
34147;DHT22;20423;49.448;9.056;2023-12-28T00:57:58;4.90;99.90
34147;DHT22;20423;49.448;9.056;2023-12-28T01:00:24;4.90;99.90
34147;DHT22;20423;49.448;9.056;2023-12-28T01:02:50;4.90;99.90
34147;DHT22;20423;49.448;9.056;2023-12-28T01:05:16;4.90;99.90
34147;DHT22;20423;49.448;9.056;2023-12-28T01:07:42;4.80;99.90
34147;DHT22;20423;49.448;9.056;2023-12-28T01:10:08;4.70;99.90
34147;DHT22;20423;49.448;9.056;2023-12-28T01:12:34;4.60;99.90
34147;DHT22;20423;49.448;9.056;2023-12-28T01:14:59;4.50;99.90
34147;DHT22;20423;49.448;9.056;2023-12-28T01:17:25;4.70;99.90
34147;DHT22;20423;49.448;9.056;2023-12-28T01:19:50;4.70;99.90
34147;DHT22;20423;49.448;9.056;2023-12-28T01:25:11;4.60;99.90
34147;DHT22;20423;49.448;9.056;2023-12-28T01:27:36;4.50;99.90
34147;DHT22;20423;49.448;9.056;2023-12-28T01:30:02;4.50;99.90
34147;DHT22;20423;49.448;9.056;2023-12-28T01:32:28;4.60;99.90
34147;DHT22;20423;49.448;9.056;2023-12-28T01:34:53;4.70;99.90
34147;DHT22;20423;49.448;9.056;2023-12-28T01:37:19;4.70;99.90
34147;DHT22;20423;49.448;9.056;2023-12-28T01:39:45;4.80;99.90
34147;DHT22;20423;49.448;9.056;2023-12-28T01:42:10;4.80;99.90
34147;DHT22;20423;49.448;9.056;2023-12-28T01:44:37;4.90;99.90
34147;DHT22;20423;49.448;9.056;2023-12-28T01:47:03;5.10;99.90
34147;DHT22;20423;49.448;9.056;2023-12-28T01:49:30;5.20;99.90
34147;DHT22;20423;49.448;9.056;2023-12-28T01:51:56;5.40;99.90
34147;DHT22;20423;49.448;9.056;2023-12-28T01:54:22;5.40;99.90
34147;DHT22;20423;49.448;9.056;2023-12-28T01:56:48;5.40;99.90
34147;DHT22;20423;49.448;9.056;2023-12-28T01:59:14;5.50;99.90
34147;DHT22;20423;49.448;9.056;2023-12-28T02:01:40;5.60;99.90
34147;DHT22;20423;49.448;9.056;2023-12-28T02:04:06;5.70;99.90
34147;DHT22;20423;49.448;9.056;2023-12-28T02:06:32;5.70;99.90
34147;DHT22;20423;49.448;9.056;2023-12-28T02:08:57;5.80;99.90
34147;DHT22;20423;49.448;9.056;2023-12-28T02:11:23;5.90;99.90
34147;DHT22;20423;49.448;9.056;2023-12-28T02:13:49;6.10;99.90
34147;DHT22;20423;49.448;9.056;2023-12-28T02:19:21;6.40;99.90
34147;DHT22;20423;49.448;9.056;2023-12-28T02:21:49;6.70;99.90
34147;DHT22;20423;49.448;9.056;2023-12-28T02:24:15;6.70;99.90
34147;DHT22;20423;49.448;9.056;2023-12-28T02:26:40;6.80;99.90
34147;DHT22;20423;49.448;9.056;2023-12-28T02:29:24;6.90;99.90
34147;DHT22;20423;49.448;9.056;2023-12-28T02:31:53;6.90;99.90
34147;DHT22;20423;49.448;9.056;2023-12-28T02:34:27;7.20;99.90
34147;DHT22;20423;49.448;9.056;2023-12-28T02:36:53;7.30;99.90
34147;DHT22;20423;49.448;9.056;2023-12-28T02:39:21;7.40;99.90
34147;DHT22;20423;49.448;9.056;2023-12-28T02:41:47;7.30;99.90
34147;DHT22;20423;49.448;9.056;2023-12-28T02:44:13;7.20;99.90
34147;DHT22;20423;49.448;9.056;2023-12-28T02:46:39;7.20;99.90
34147;DHT22;20423;49.448;9.056;2023-12-28T02:49:04;7.30;99.90
34147;DHT22;20423;49.448;9.056;2023-12-28T02:51:32;7.30;99.90
34147;DHT22;20423;49.448;9.056;2023-12-28T02:54:16;7.30;99.90
34147;DHT22;20423;49.448;9.056;2023-12-28T02:56:54;7.20;99.90
34147;DHT22;20423;49.448;9.056;2023-12-28T02:59:19;7.20;99.90
34147;DHT22;20423;49.448;9.056;2023-12-28T03:01:45;7.10;99.90
34147;DHT22;20423;49.448;9.056;2023-12-28T03:04:11;7.20;99.90
34147;DHT22;20423;49.448;9.056;2023-12-28T03:06:36;7.20;99.90
34147;DHT22;20423;49.448;9.056;2023-12-28T03:09:03;7.10;99.90
34147;DHT22;20423;49.448;9.056;2023-12-28T03:11:30;7.20;99.90
34147;DHT22;20423;49.448;9.056;2023-12-28T03:13:55;7.20;99.90
34147;DHT22;20423;49.448;9.056;2023-12-28T03:16:21;7.20;99.90
34147;DHT22;20423;49.448;9.056;2023-12-28T03:18:47;7.20;99.90
34147;DHT22;20423;49.448;9.056;2023-12-28T03:21:12;7.20;99.90
34147;DHT22;20423;49.448;9.056;2023-12-28T03:23:53;7.20;99.90
34147;DHT22;20423;49.448;9.056;2023-12-28T03:29:26;7.30;99.90
34147;DHT22;20423;49.448;9.056;2023-12-28T03:31:52;7.30;99.90
34147;DHT22;20423;49.448;9.056;2023-12-28T03:34:36;7.40;99.90
34147;DHT22;20423;49.448;9.056;2023-12-28T03:37:03;7.40;99.90
34147;DHT22;20423;49.448;9.056;2023-12-28T03:39:29;7.40;99.90
34147;DHT22;20423;49.448;9.056;2023-12-28T03:41:54;7.30;99.90
34147;DHT22;20423;49.448;9.056;2023-12-28T03:44:20;7.20;99.90
34147;DHT22;20423;49.448;9.056;2023-12-28T03:46:49;7.20;99.90
34147;DHT22;20423;49.448;9.056;2023-12-28T03:49:18;7.20;99.90
34147;DHT22;20423;49.448;9.056;2023-12-28T03:51:44;7.20;99.90
34147;DHT22;20423;49.448;9.056;2023-12-28T03:54:10;7.20;99.90
34147;DHT22;20423;49.448;9.056;2023-12-28T03:56:36;7.30;99.90
34147;DHT22;20423;49.448;9.056;2023-12-28T03:59:05;7.30;99.90
34147;DHT22;20423;49.448;9.056;2023-12-28T04:01:32;7.30;99.90
34147;DHT22;20423;49.448;9.056;2023-12-28T04:03:58;7.30;99.90
34147;DHT22;20423;49.448;9.056;2023-12-28T04:06:24;7.30;99.90
34147;DHT22;20423;49.448;9.056;2023-12-28T04:08:53;7.30;99.90
34147;DHT22;20423;49.448;9.056;2023-12-28T04:11:18;7.40;99.90
34147;DHT22;20423;49.448;9.056;2023-12-28T04:13:50;7.40;99.90
34147;DHT22;20423;49.448;9.056;2023-12-28T04:16:16;7.40;99.90
34147;DHT22;20423;49.448;9.056;2023-12-28T04:18:42;7.40;99.90
34147;DHT22;20423;49.448;9.056;2023-12-28T04:21:08;7.40;99.90
34147;DHT22;20423;49.448;9.056;2023-12-28T04:23:35;7.40;99.90
34147;DHT22;20423;49.448;9.056;2023-12-28T04:26:01;7.40;99.90
34147;DHT22;20423;49.448;9.056;2023-12-28T04:28:26;7.50;99.90
34147;DHT22;20423;49.448;9.056;2023-12-28T04:30:52;7.50;99.90
34147;DHT22;20423;49.448;9.056;2023-12-28T04:33:17;7.50;99.90
34147;DHT22;20423;49.448;9.056;2023-12-28T04:35:44;7.30;99.90
34147;DHT22;20423;49.448;9.056;2023-12-28T04:38:10;7.20;99.90
34147;DHT22;20423;49.448;9.056;2023-12-28T04:40:36;7.20;99.90
34147;DHT22;20423;49.448;9.056;2023-12-28T04:43:01;7.10;99.90
34147;DHT22;20423;49.448;9.056;2023-12-28T04:48:20;7.10;99.90
34147;DHT22;20423;49.448;9.056;2023-12-28T04:50:49;7.10;99.90
34147;DHT22;20423;49.448;9.056;2023-12-28T04:53:15;7.20;99.90
34147;DHT22;20423;49.448;9.056;2023-12-28T04:55:41;7.00;99.90
34147;DHT22;20423;49.448;9.056;2023-12-28T04:58:07;6.80;99.90
34147;DHT22;20423;49.448;9.056;2023-12-28T05:00:32;6.60;99.90
34147;DHT22;20423;49.448;9.056;2023-12-28T05:02:58;6.40;99.90
34147;DHT22;20423;49.448;9.056;2023-12-28T05:05:23;6.30;99.90
34147;DHT22;20423;49.448;9.056;2023-12-28T05:07:49;6.20;99.90
34147;DHT22;20423;49.448;9.056;2023-12-28T05:10:14;6.10;99.90
34147;DHT22;20423;49.448;9.056;2023-12-28T05:12:40;6.10;99.90
34147;DHT22;20423;49.448;9.056;2023-12-28T05:15:06;6.00;99.90
34147;DHT22;20423;49.448;9.056;2023-12-28T05:17:32;6.00;99.90
34147;DHT22;20423;49.448;9.056;2023-12-28T05:19:57;5.90;99.90
34147;DHT22;20423;49.448;9.056;2023-12-28T05:22:23;6.00;99.90
34147;DHT22;20423;49.448;9.056;2023-12-28T05:24:49;5.90;99.90
34147;DHT22;20423;49.448;9.056;2023-12-28T05:27:14;5.90;99.90
34147;DHT22;20423;49.448;9.056;2023-12-28T05:29:40;5.90;99.90
34147;DHT22;20423;49.448;9.056;2023-12-28T05:32:05;5.90;99.90
34147;DHT22;20423;49.448;9.056;2023-12-28T05:34:31;5.90;99.90
34147;DHT22;20423;49.448;9.056;2023-12-28T05:36:57;5.90;99.90
34147;DHT22;20423;49.448;9.056;2023-12-28T05:39:22;5.90;99.90
34147;DHT22;20423;49.448;9.056;2023-12-28T05:41:48;6.00;99.90
34147;DHT22;20423;49.448;9.056;2023-12-28T05:44:16;5.90;99.90
34147;DHT22;20423;49.448;9.056;2023-12-28T05:46:42;6.00;99.90
34147;DHT22;20423;49.448;9.056;2023-12-28T05:49:07;5.90;99.90
34147;DHT22;20423;49.448;9.056;2023-12-28T05:51:39;5.90;99.90
34147;DHT22;20423;49.448;9.056;2023-12-28T05:54:05;5.90;99.90
34147;DHT22;20423;49.448;9.056;2023-12-28T05:56:31;5.90;99.90
34147;DHT22;20423;49.448;9.056;2023-12-28T05:58:57;6.00;99.90
34147;DHT22;20423;49.448;9.056;2023-12-28T06:01:22;5.90;99.90
34147;DHT22;20423;49.448;9.056;2023-12-28T06:03:48;6.00;99.90
34147;DHT22;20423;49.448;9.056;2023-12-28T06:06:15;6.00;99.90
34147;DHT22;20423;49.448;9.056;2023-12-28T06:08:42;6.00;99.90
34147;DHT22;20423;49.448;9.056;2023-12-28T06:11:08;6.00;99.90
34147;DHT22;20423;49.448;9.056;2023-12-28T06:13:33;6.00;99.90
34147;DHT22;20423;49.448;9.056;2023-12-28T06:15:59;6.00;99.90
34147;DHT22;20423;49.448;9.056;2023-12-28T06:18:24;6.10;99.90
34147;DHT22;20423;49.448;9.056;2023-12-28T06:20:50;6.00;99.90
34147;DHT22;20423;49.448;9.056;2023-12-28T06:23:15;6.20;99.90
34147;DHT22;20423;49.448;9.056;2023-12-28T06:25:41;6.10;99.90
34147;DHT22;20423;49.448;9.056;2023-12-28T06:28:07;6.10;99.90
34147;DHT22;20423;49.448;9.056;2023-12-28T06:30:32;6.10;99.90
34147;DHT22;20423;49.448;9.056;2023-12-28T06:32:58;6.10;99.90
34147;DHT22;20423;49.448;9.056;2023-12-28T06:35:24;6.20;99.90
34147;DHT22;20423;49.448;9.056;2023-12-28T06:37:49;6.10;99.90
34147;DHT22;20423;49.448;9.056;2023-12-28T06:40:15;6.10;99.90
34147;DHT22;20423;49.448;9.056;2023-12-28T06:42:40;6.10;99.90
34147;DHT22;20423;49.448;9.056;2023-12-28T06:45:09;6.10;99.90
34147;DHT22;20423;49.448;9.056;2023-12-28T06:47:34;6.10;99.90
34147;DHT22;20423;49.448;9.056;2023-12-28T06:50:00;6.10;99.90
34147;DHT22;20423;49.448;9.056;2023-12-28T06:52:26;6.00;99.90
34147;DHT22;20423;49.448;9.056;2023-12-28T06:54:51;6.00;99.90
34147;DHT22;20423;49.448;9.056;2023-12-28T06:57:18;6.00;99.90
34147;DHT22;20423;49.448;9.056;2023-12-28T06:59:44;6.00;99.90
34147;DHT22;20423;49.448;9.056;2023-12-28T07:02:10;6.00;99.90
34147;DHT22;20423;49.448;9.056;2023-12-28T07:04:35;5.90;99.90
34147;DHT22;20423;49.448;9.056;2023-12-28T07:07:01;5.90;99.90
34147;DHT22;20423;49.448;9.056;2023-12-28T07:09:26;6.00;99.90
34147;DHT22;20423;49.448;9.056;2023-12-28T07:11:52;6.00;99.90
34147;DHT22;20423;49.448;9.056;2023-12-28T07:14:18;5.90;99.90
34147;DHT22;20423;49.448;9.056;2023-12-28T07:16:43;6.00;99.90
34147;DHT22;20423;49.448;9.056;2023-12-28T07:19:09;6.00;99.90
34147;DHT22;20423;49.448;9.056;2023-12-28T07:21:34;6.00;99.90
34147;DHT22;20423;49.448;9.056;2023-12-28T07:24:00;6.00;99.90
34147;DHT22;20423;49.448;9.056;2023-12-28T07:26:25;6.00;99.90
34147;DHT22;20423;49.448;9.056;2023-12-28T07:28:51;6.00;99.90
34147;DHT22;20423;49.448;9.056;2023-12-28T07:31:27;6.00;99.90
34147;DHT22;20423;49.448;9.056;2023-12-28T07:33:53;6.00;99.90
34147;DHT22;20423;49.448;9.056;2023-12-28T07:36:19;6.00;99.90
34147;DHT22;20423;49.448;9.056;2023-12-28T07:38:45;6.00;99.90
34147;DHT22;20423;49.448;9.056;2023-12-28T07:41:11;6.00;99.90
34147;DHT22;20423;49.448;9.056;2023-12-28T07:43:36;6.00;99.90
34147;DHT22;20423;49.448;9.056;2023-12-28T07:46:02;6.00;99.90
34147;DHT22;20423;49.448;9.056;2023-12-28T07:48:28;6.00;99.90
34147;DHT22;20423;49.448;9.056;2023-12-28T07:50:56;6.00;99.90
34147;DHT22;20423;49.448;9.056;2023-12-28T07:53:21;6.00;99.90
34147;DHT22;20423;49.448;9.056;2023-12-28T07:55:47;6.00;99.90
34147;DHT22;20423;49.448;9.056;2023-12-28T07:58:14;6.00;99.90
34147;DHT22;20423;49.448;9.056;2023-12-28T08:00:40;6.10;99.90
34147;DHT22;20423;49.448;9.056;2023-12-28T08:03:05;6.10;99.90
34147;DHT22;20423;49.448;9.056;2023-12-28T08:05:31;6.10;99.90
34147;DHT22;20423;49.448;9.056;2023-12-28T08:07:57;6.10;99.90
34147;DHT22;20423;49.448;9.056;2023-12-28T08:10:22;6.10;99.90
34147;DHT22;20423;49.448;9.056;2023-12-28T08:12:48;6.10;99.90
34147;DHT22;20423;49.448;9.056;2023-12-28T08:15:13;6.10;99.90
34147;DHT22;20423;49.448;9.056;2023-12-28T08:17:39;6.20;99.90
34147;DHT22;20423;49.448;9.056;2023-12-28T08:20:05;6.20;99.90
34147;DHT22;20423;49.448;9.056;2023-12-28T08:22:32;6.20;99.90
34147;DHT22;20423;49.448;9.056;2023-12-28T08:24:57;6.20;99.90
34147;DHT22;20423;49.448;9.056;2023-12-28T08:27:23;6.20;99.90
34147;DHT22;20423;49.448;9.056;2023-12-28T08:29:49;6.30;99.90
34147;DHT22;20423;49.448;9.056;2023-12-28T08:32:14;6.30;99.90
34147;DHT22;20423;49.448;9.056;2023-12-28T08:34:40;6.30;99.90
34147;DHT22;20423;49.448;9.056;2023-12-28T08:37:06;6.30;99.90
34147;DHT22;20423;49.448;9.056;2023-12-28T08:39:31;6.30;99.90
34147;DHT22;20423;49.448;9.056;2023-12-28T08:41:57;6.30;99.90
34147;DHT22;20423;49.448;9.056;2023-12-28T08:44:23;6.30;99.90
34147;DHT22;20423;49.448;9.056;2023-12-28T08:46:49;6.30;99.90
34147;DHT22;20423;49.448;9.056;2023-12-28T08:49:14;6.30;99.90
34147;DHT22;20423;49.448;9.056;2023-12-28T08:51:41;6.30;99.90
34147;DHT22;20423;49.448;9.056;2023-12-28T08:54:07;6.40;99.90
34147;DHT22;20423;49.448;9.056;2023-12-28T08:56:33;6.30;99.90
34147;DHT22;20423;49.448;9.056;2023-12-28T08:58:59;6.30;99.90
34147;DHT22;20423;49.448;9.056;2023-12-28T09:01:25;6.40;99.90
34147;DHT22;20423;49.448;9.056;2023-12-28T09:03:51;6.40;99.90
34147;DHT22;20423;49.448;9.056;2023-12-28T09:06:17;6.40;99.90
34147;DHT22;20423;49.448;9.056;2023-12-28T09:08:43;6.40;99.90
34147;DHT22;20423;49.448;9.056;2023-12-28T09:11:12;6.40;99.90
34147;DHT22;20423;49.448;9.056;2023-12-28T09:13:38;6.40;99.90
34147;DHT22;20423;49.448;9.056;2023-12-28T09:16:04;6.40;99.90
34147;DHT22;20423;49.448;9.056;2023-12-28T09:18:30;6.40;99.90
34147;DHT22;20423;49.448;9.056;2023-12-28T09:20:56;6.40;99.90
34147;DHT22;20423;49.448;9.056;2023-12-28T09:23:21;6.40;99.90
34147;DHT22;20423;49.448;9.056;2023-12-28T09:25:47;6.40;99.90
34147;DHT22;20423;49.448;9.056;2023-12-28T09:28:19;6.50;99.90
34147;DHT22;20423;49.448;9.056;2023-12-28T09:30:44;6.50;99.90
34147;DHT22;20423;49.448;9.056;2023-12-28T09:33:10;6.50;99.90
34147;DHT22;20423;49.448;9.056;2023-12-28T09:35:36;6.50;99.90
34147;DHT22;20423;49.448;9.056;2023-12-28T09:38:02;6.50;99.90
34147;DHT22;20423;49.448;9.056;2023-12-28T09:40:28;6.50;99.90
34147;DHT22;20423;49.448;9.056;2023-12-28T09:42:57;6.60;99.90
34147;DHT22;20423;49.448;9.056;2023-12-28T09:45:26;6.60;99.90
34147;DHT22;20423;49.448;9.056;2023-12-28T09:47:52;6.60;99.90
34147;DHT22;20423;49.448;9.056;2023-12-28T09:50:18;6.60;99.90
34147;DHT22;20423;49.448;9.056;2023-12-28T09:52:44;6.60;99.90
34147;DHT22;20423;49.448;9.056;2023-12-28T09:55:09;6.60;99.90
34147;DHT22;20423;49.448;9.056;2023-12-28T10:00:32;6.70;99.90
34147;DHT22;20423;49.448;9.056;2023-12-28T10:02:57;6.70;99.90
34147;DHT22;20423;49.448;9.056;2023-12-28T10:05:23;6.70;99.90
34147;DHT22;20423;49.448;9.056;2023-12-28T10:07:49;6.60;99.90
34147;DHT22;20423;49.448;9.056;2023-12-28T10:10:15;6.80;99.90
34147;DHT22;20423;49.448;9.056;2023-12-28T10:12:42;6.70;99.90
34147;DHT22;20423;49.448;9.056;2023-12-28T10:15:07;6.70;99.90
34147;DHT22;20423;49.448;9.056;2023-12-28T10:17:33;6.70;99.90
34147;DHT22;20423;49.448;9.056;2023-12-28T10:20:03;6.70;99.90
34147;DHT22;20423;49.448;9.056;2023-12-28T10:22:31;6.70;99.90
34147;DHT22;20423;49.448;9.056;2023-12-28T10:24:56;6.70;99.90
34147;DHT22;20423;49.448;9.056;2023-12-28T10:27:22;6.70;99.90
34147;DHT22;20423;49.448;9.056;2023-12-28T10:29:52;6.80;99.90
34147;DHT22;20423;49.448;9.056;2023-12-28T10:32:18;6.80;99.90
34147;DHT22;20423;49.448;9.056;2023-12-28T10:34:44;6.80;99.90
34147;DHT22;20423;49.448;9.056;2023-12-28T10:37:09;6.80;99.90
34147;DHT22;20423;49.448;9.056;2023-12-28T10:39:36;6.80;99.90
34147;DHT22;20423;49.448;9.056;2023-12-28T10:42:09;6.90;99.90
34147;DHT22;20423;49.448;9.056;2023-12-28T10:44:36;6.80;99.90
34147;DHT22;20423;49.448;9.056;2023-12-28T10:47:05;6.80;99.90
34147;DHT22;20423;49.448;9.056;2023-12-28T10:49:33;6.80;99.90
34147;DHT22;20423;49.448;9.056;2023-12-28T10:52:00;6.80;99.90
34147;DHT22;20423;49.448;9.056;2023-12-28T10:57:01;6.80;99.90
34147;DHT22;20423;49.448;9.056;2023-12-28T11:01:54;6.90;99.90
34147;DHT22;20423;49.448;9.056;2023-12-28T11:06:46;6.80;99.90
34147;DHT22;20423;49.448;9.056;2023-12-28T11:09:11;6.80;99.90
34147;DHT22;20423;49.448;9.056;2023-12-28T11:11:41;6.80;99.90
34147;DHT22;20423;49.448;9.056;2023-12-28T11:14:07;6.80;99.90
34147;DHT22;20423;49.448;9.056;2023-12-28T11:16:32;6.80;99.90
34147;DHT22;20423;49.448;9.056;2023-12-28T11:18:59;6.80;99.90
34147;DHT22;20423;49.448;9.056;2023-12-28T11:21:24;6.70;99.90
34147;DHT22;20423;49.448;9.056;2023-12-28T11:23:51;6.70;99.90
34147;DHT22;20423;49.448;9.056;2023-12-28T11:26:17;6.60;99.90
34147;DHT22;20423;49.448;9.056;2023-12-28T11:28:43;6.60;99.90
34147;DHT22;20423;49.448;9.056;2023-12-28T11:31:10;6.60;99.90
34147;DHT22;20423;49.448;9.056;2023-12-28T11:33:43;6.70;99.90
34147;DHT22;20423;49.448;9.056;2023-12-28T11:36:09;6.60;99.90
34147;DHT22;20423;49.448;9.056;2023-12-28T11:38:35;6.60;99.90
34147;DHT22;20423;49.448;9.056;2023-12-28T11:41:03;6.70;99.90
34147;DHT22;20423;49.448;9.056;2023-12-28T11:43:29;6.70;99.90
34147;DHT22;20423;49.448;9.056;2023-12-28T11:46:00;6.70;99.90
34147;DHT22;20423;49.448;9.056;2023-12-28T11:48:26;6.80;99.90
34147;DHT22;20423;49.448;9.056;2023-12-28T11:50:56;6.90;99.90
34147;DHT22;20423;49.448;9.056;2023-12-28T11:53:23;6.90;99.90
34147;DHT22;20423;49.448;9.056;2023-12-28T11:55:49;6.90;99.90
34147;DHT22;20423;49.448;9.056;2023-12-28T11:58:18;6.90;99.90
34147;DHT22;20423;49.448;9.056;2023-12-28T12:00:43;6.80;99.90
34147;DHT22;20423;49.448;9.056;2023-12-28T12:03:10;6.80;99.90
34147;DHT22;20423;49.448;9.056;2023-12-28T12:05:35;6.80;99.90
34147;DHT22;20423;49.448;9.056;2023-12-28T12:08:01;6.70;99.90
34147;DHT22;20423;49.448;9.056;2023-12-28T12:10:27;6.80;99.90
34147;DHT22;20423;49.448;9.056;2023-12-28T12:12:52;6.70;99.90
34147;DHT22;20423;49.448;9.056;2023-12-28T12:15:18;6.70;99.90
34147;DHT22;20423;49.448;9.056;2023-12-28T12:17:44;6.70;99.90
34147;DHT22;20423;49.448;9.056;2023-12-28T12:23:38;6.80;99.90
34147;DHT22;20423;49.448;9.056;2023-12-28T12:26:06;6.70;99.90
34147;DHT22;20423;49.448;9.056;2023-12-28T12:28:32;6.80;99.90
34147;DHT22;20423;49.448;9.056;2023-12-28T12:30:58;6.70;99.90
34147;DHT22;20423;49.448;9.056;2023-12-28T12:33:26;6.80;99.90
34147;DHT22;20423;49.448;9.056;2023-12-28T12:36:01;6.70;99.90
34147;DHT22;20423;49.448;9.056;2023-12-28T12:38:27;6.70;99.90
34147;DHT22;20423;49.448;9.056;2023-12-28T12:40:53;6.70;99.90
34147;DHT22;20423;49.448;9.056;2023-12-28T12:43:19;6.70;99.90
34147;DHT22;20423;49.448;9.056;2023-12-28T12:45:44;6.70;99.90
34147;DHT22;20423;49.448;9.056;2023-12-28T12:48:11;6.70;99.90
34147;DHT22;20423;49.448;9.056;2023-12-28T12:50:37;6.70;99.90
34147;DHT22;20423;49.448;9.056;2023-12-28T12:53:04;6.70;99.90
34147;DHT22;20423;49.448;9.056;2023-12-28T12:55:48;6.70;99.90
34147;DHT22;20423;49.448;9.056;2023-12-28T12:58:21;6.70;99.90
34147;DHT22;20423;49.448;9.056;2023-12-28T13:00:47;6.70;99.90
34147;DHT22;20423;49.448;9.056;2023-12-28T13:03:13;6.70;99.90
34147;DHT22;20423;49.448;9.056;2023-12-28T13:05:38;6.70;99.90
34147;DHT22;20423;49.448;9.056;2023-12-28T13:08:04;6.70;99.90
34147;DHT22;20423;49.448;9.056;2023-12-28T13:10:30;6.70;99.90
34147;DHT22;20423;49.448;9.056;2023-12-28T13:12:56;6.70;99.90
34147;DHT22;20423;49.448;9.056;2023-12-28T13:15:21;6.70;99.90
34147;DHT22;20423;49.448;9.056;2023-12-28T13:17:47;6.70;99.90
34147;DHT22;20423;49.448;9.056;2023-12-28T13:20:13;6.70;99.90
34147;DHT22;20423;49.448;9.056;2023-12-28T13:22:39;6.70;99.90
34147;DHT22;20423;49.448;9.056;2023-12-28T13:25:05;6.70;99.90
34147;DHT22;20423;49.448;9.056;2023-12-28T13:27:30;6.70;99.90
34147;DHT22;20423;49.448;9.056;2023-12-28T13:29:57;6.70;99.90
34147;DHT22;20423;49.448;9.056;2023-12-28T13:32:23;6.70;99.90
34147;DHT22;20423;49.448;9.056;2023-12-28T13:34:51;6.70;99.90
34147;DHT22;20423;49.448;9.056;2023-12-28T13:37:17;6.70;99.90
34147;DHT22;20423;49.448;9.056;2023-12-28T13:39:43;6.80;99.90
34147;DHT22;20423;49.448;9.056;2023-12-28T13:42:09;6.70;99.90
34147;DHT22;20423;49.448;9.056;2023-12-28T13:44:35;6.70;99.90
34147;DHT22;20423;49.448;9.056;2023-12-28T13:47:03;6.70;99.90
34147;DHT22;20423;49.448;9.056;2023-12-28T13:49:31;6.80;99.90
34147;DHT22;20423;49.448;9.056;2023-12-28T13:51:56;6.70;99.90
34147;DHT22;20423;49.448;9.056;2023-12-28T13:54:22;6.70;99.90
34147;DHT22;20423;49.448;9.056;2023-12-28T13:56:48;6.70;99.90
34147;DHT22;20423;49.448;9.056;2023-12-28T14:02:10;6.70;99.90
34147;DHT22;20423;49.448;9.056;2023-12-28T14:04:36;6.80;99.90
34147;DHT22;20423;49.448;9.056;2023-12-28T14:07:01;6.70;99.90
34147;DHT22;20423;49.448;9.056;2023-12-28T14:09:29;6.60;99.90
34147;DHT22;20423;49.448;9.056;2023-12-28T14:11:54;6.60;99.90
34147;DHT22;20423;49.448;9.056;2023-12-28T14:14:20;6.60;99.90
34147;DHT22;20423;49.448;9.056;2023-12-28T14:16:46;6.60;99.90
34147;DHT22;20423;49.448;9.056;2023-12-28T14:19:11;6.60;99.90
34147;DHT22;20423;49.448;9.056;2023-12-28T14:21:37;6.50;99.90
34147;DHT22;20423;49.448;9.056;2023-12-28T14:24:03;6.50;99.90
34147;DHT22;20423;49.448;9.056;2023-12-28T14:26:29;6.50;99.90
34147;DHT22;20423;49.448;9.056;2023-12-28T14:28:56;6.50;99.90
34147;DHT22;20423;49.448;9.056;2023-12-28T14:31:22;6.50;99.90
34147;DHT22;20423;49.448;9.056;2023-12-28T14:33:48;6.40;99.90
34147;DHT22;20423;49.448;9.056;2023-12-28T14:38:39;6.40;99.90
34147;DHT22;20423;49.448;9.056;2023-12-28T14:41:05;6.40;99.90
34147;DHT22;20423;49.448;9.056;2023-12-28T14:43:30;6.40;99.90
34147;DHT22;20423;49.448;9.056;2023-12-28T14:45:56;6.40;99.90
34147;DHT22;20423;49.448;9.056;2023-12-28T14:48:21;6.30;99.90
34147;DHT22;20423;49.448;9.056;2023-12-28T14:54:16;6.30;99.90
34147;DHT22;20423;49.448;9.056;2023-12-28T14:56:41;6.30;99.90
34147;DHT22;20423;49.448;9.056;2023-12-28T14:59:07;6.30;99.90
34147;DHT22;20423;49.448;9.056;2023-12-28T15:01:32;6.30;99.90
34147;DHT22;20423;49.448;9.056;2023-12-28T15:03:58;6.30;99.90
34147;DHT22;20423;49.448;9.056;2023-12-28T15:06:24;6.30;99.90
34147;DHT22;20423;49.448;9.056;2023-12-28T15:08:50;6.30;99.90
34147;DHT22;20423;49.448;9.056;2023-12-28T15:11:15;6.30;99.90
34147;DHT22;20423;49.448;9.056;2023-12-28T15:13:41;6.30;99.90
34147;DHT22;20423;49.448;9.056;2023-12-28T15:16:07;6.30;99.90
34147;DHT22;20423;49.448;9.056;2023-12-28T15:21:35;6.30;99.90
34147;DHT22;20423;49.448;9.056;2023-12-28T15:24:01;6.30;99.90
34147;DHT22;20423;49.448;9.056;2023-12-28T15:26:27;6.20;99.90
34147;DHT22;20423;49.448;9.056;2023-12-28T15:28:53;6.30;99.90
34147;DHT22;20423;49.448;9.056;2023-12-28T15:31:18;6.30;99.90
34147;DHT22;20423;49.448;9.056;2023-12-28T15:33:44;6.30;99.90
34147;DHT22;20423;49.448;9.056;2023-12-28T15:36:10;6.30;99.90
34147;DHT22;20423;49.448;9.056;2023-12-28T15:38:36;6.20;99.90
34147;DHT22;20423;49.448;9.056;2023-12-28T15:41:05;6.20;99.90
34147;DHT22;20423;49.448;9.056;2023-12-28T15:43:31;6.30;99.90
34147;DHT22;20423;49.448;9.056;2023-12-28T15:45:56;6.20;99.90
34147;DHT22;20423;49.448;9.056;2023-12-28T15:48:22;6.30;99.90
34147;DHT22;20423;49.448;9.056;2023-12-28T15:50:48;6.30;99.90
34147;DHT22;20423;49.448;9.056;2023-12-28T15:53:15;6.20;99.90
34147;DHT22;20423;49.448;9.056;2023-12-28T15:55:41;6.20;99.90
34147;DHT22;20423;49.448;9.056;2023-12-28T15:58:07;6.20;99.90
34147;DHT22;20423;49.448;9.056;2023-12-28T16:00:38;6.20;99.90
34147;DHT22;20423;49.448;9.056;2023-12-28T16:03:12;6.20;99.90
34147;DHT22;20423;49.448;9.056;2023-12-28T16:05:41;6.20;99.90
34147;DHT22;20423;49.448;9.056;2023-12-28T16:08:07;6.20;99.90
34147;DHT22;20423;49.448;9.056;2023-12-28T16:10:38;6.20;99.90
34147;DHT22;20423;49.448;9.056;2023-12-28T16:13:04;6.20;99.90
34147;DHT22;20423;49.448;9.056;2023-12-28T16:15:30;6.30;99.90
34147;DHT22;20423;49.448;9.056;2023-12-28T16:17:56;6.20;99.90